sensor_id;sensor_type;location;lat;lon;timestamp;P1;durP1;ratioP1;P2;durP2;ratioP2
50605;SDS011;36557;53.572;10.170;2024-01-11T00:00:16;14.23;;;6.47;;
50605;SDS011;36557;53.572;10.170;2024-01-11T00:02:44;15.77;;;7.05;;
50605;SDS011;36557;53.572;10.170;2024-01-11T00:05:10;16.20;;;7.18;;
50605;SDS011;36557;53.572;10.170;2024-01-11T00:07:36;13.00;;;5.90;;
50605;SDS011;36557;53.572;10.170;2024-01-11T00:10:02;15.30;;;7.20;;
50605;SDS011;36557;53.572;10.170;2024-01-11T00:12:29;17.88;;;7.20;;
50605;SDS011;36557;53.572;10.170;2024-01-11T00:14:55;15.32;;;6.55;;
50605;SDS011;36557;53.572;10.170;2024-01-11T00:17:21;15.32;;;6.25;;
50605;SDS011;36557;53.572;10.170;2024-01-11T00:19:47;14.15;;;6.40;;
50605;SDS011;36557;53.572;10.170;2024-01-11T00:22:14;15.43;;;6.45;;
50605;SDS011;36557;53.572;10.170;2024-01-11T00:24:40;15.95;;;7.43;;
50605;SDS011;36557;53.572;10.170;2024-01-11T00:27:06;15.27;;;6.15;;
50605;SDS011;36557;53.572;10.170;2024-01-11T00:29:32;14.57;;;6.22;;
50605;SDS011;36557;53.572;10.170;2024-01-11T00:31:58;12.50;;;5.82;;
50605;SDS011;36557;53.572;10.170;2024-01-11T00:34:24;12.15;;;5.93;;
50605;SDS011;36557;53.572;10.170;2024-01-11T00:36:50;16.25;;;7.57;;
50605;SDS011;36557;53.572;10.170;2024-01-11T00:39:16;17.73;;;7.53;;
50605;SDS011;36557;53.572;10.170;2024-01-11T00:41:42;19.35;;;7.80;;
50605;SDS011;36557;53.572;10.170;2024-01-11T00:44:09;19.10;;;8.35;;
50605;SDS011;36557;53.572;10.170;2024-01-11T00:46:35;15.50;;;6.60;;
50605;SDS011;36557;53.572;10.170;2024-01-11T00:49:01;18.60;;;8.13;;
50605;SDS011;36557;53.572;10.170;2024-01-11T00:53:56;16.15;;;6.88;;
50605;SDS011;36557;53.572;10.170;2024-01-11T00:56:22;17.77;;;7.43;;
50605;SDS011;36557;53.572;10.170;2024-01-11T00:58:48;15.90;;;6.88;;
50605;SDS011;36557;53.572;10.170;2024-01-11T01:01:14;17.67;;;7.93;;
50605;SDS011;36557;53.572;10.170;2024-01-11T01:03:40;17.23;;;7.10;;
50605;SDS011;36557;53.572;10.170;2024-01-11T01:06:06;19.02;;;7.97;;
50605;SDS011;36557;53.572;10.170;2024-01-11T01:08:32;18.80;;;7.95;;
50605;SDS011;36557;53.572;10.170;2024-01-11T01:10:58;17.83;;;7.55;;
50605;SDS011;36557;53.572;10.170;2024-01-11T01:13:24;23.95;;;8.32;;
50605;SDS011;36557;53.572;10.170;2024-01-11T01:15:50;18.20;;;7.90;;
50605;SDS011;36557;53.572;10.170;2024-01-11T01:18:17;19.25;;;7.18;;
50605;SDS011;36557;53.572;10.170;2024-01-11T01:20:43;15.90;;;6.75;;
50605;SDS011;36557;53.572;10.170;2024-01-11T01:23:09;20.40;;;7.90;;
50605;SDS011;36557;53.572;10.170;2024-01-11T01:25:35;21.38;;;8.10;;
50605;SDS011;36557;53.572;10.170;2024-01-11T01:28:01;15.73;;;7.13;;
50605;SDS011;36557;53.572;10.170;2024-01-11T01:30:27;19.52;;;7.70;;
50605;SDS011;36557;53.572;10.170;2024-01-11T01:32:53;14.63;;;6.60;;
50605;SDS011;36557;53.572;10.170;2024-01-11T01:35:20;15.30;;;6.93;;
50605;SDS011;36557;53.572;10.170;2024-01-11T01:37:46;15.85;;;7.38;;
50605;SDS011;36557;53.572;10.170;2024-01-11T01:40:12;14.45;;;6.53;;
50605;SDS011;36557;53.572;10.170;2024-01-11T01:42:42;20.00;;;8.20;;
50605;SDS011;36557;53.572;10.170;2024-01-11T01:45:09;20.15;;;7.55;;
50605;SDS011;36557;53.572;10.170;2024-01-11T01:47:35;17.88;;;6.60;;
50605;SDS011;36557;53.572;10.170;2024-01-11T01:50:01;19.48;;;7.97;;
50605;SDS011;36557;53.572;10.170;2024-01-11T01:52:28;17.08;;;7.18;;
50605;SDS011;36557;53.572;10.170;2024-01-11T01:54:54;14.25;;;6.20;;
50605;SDS011;36557;53.572;10.170;2024-01-11T01:57:21;15.43;;;6.97;;
50605;SDS011;36557;53.572;10.170;2024-01-11T01:59:48;16.90;;;6.95;;
50605;SDS011;36557;53.572;10.170;2024-01-11T02:02:15;18.95;;;8.18;;
50605;SDS011;36557;53.572;10.170;2024-01-11T02:04:42;18.85;;;6.88;;
50605;SDS011;36557;53.572;10.170;2024-01-11T02:07:08;12.52;;;5.82;;
50605;SDS011;36557;53.572;10.170;2024-01-11T02:09:34;15.48;;;7.07;;
50605;SDS011;36557;53.572;10.170;2024-01-11T02:12:01;13.63;;;5.95;;
50605;SDS011;36557;53.572;10.170;2024-01-11T02:14:28;13.68;;;6.63;;
50605;SDS011;36557;53.572;10.170;2024-01-11T02:16:54;15.00;;;6.75;;
50605;SDS011;36557;53.572;10.170;2024-01-11T02:19:21;18.92;;;7.30;;
50605;SDS011;36557;53.572;10.170;2024-01-11T02:21:48;17.30;;;7.05;;
50605;SDS011;36557;53.572;10.170;2024-01-11T02:24:15;16.33;;;6.43;;
50605;SDS011;36557;53.572;10.170;2024-01-11T02:29:26;17.55;;;7.57;;
50605;SDS011;36557;53.572;10.170;2024-01-11T02:31:52;19.65;;;7.63;;
50605;SDS011;36557;53.572;10.170;2024-01-11T02:34:18;21.52;;;8.65;;
50605;SDS011;36557;53.572;10.170;2024-01-11T02:36:45;16.95;;;7.90;;
50605;SDS011;36557;53.572;10.170;2024-01-11T02:39:11;18.10;;;7.35;;
50605;SDS011;36557;53.572;10.170;2024-01-11T02:41:37;19.35;;;8.23;;
50605;SDS011;36557;53.572;10.170;2024-01-11T02:44:03;24.10;;;9.02;;
50605;SDS011;36557;53.572;10.170;2024-01-11T02:46:30;19.58;;;8.35;;
50605;SDS011;36557;53.572;10.170;2024-01-11T02:48:56;23.05;;;9.35;;
50605;SDS011;36557;53.572;10.170;2024-01-11T02:51:22;23.27;;;8.82;;
50605;SDS011;36557;53.572;10.170;2024-01-11T02:53:48;22.35;;;8.57;;
50605;SDS011;36557;53.572;10.170;2024-01-11T02:56:14;21.40;;;8.43;;
50605;SDS011;36557;53.572;10.170;2024-01-11T02:58:40;21.10;;;9.38;;
50605;SDS011;36557;53.572;10.170;2024-01-11T03:01:06;24.73;;;10.00;;
50605;SDS011;36557;53.572;10.170;2024-01-11T03:03:32;27.08;;;10.52;;
50605;SDS011;36557;53.572;10.170;2024-01-11T03:05:58;19.63;;;7.57;;
50605;SDS011;36557;53.572;10.170;2024-01-11T03:08:25;20.20;;;9.20;;
50605;SDS011;36557;53.572;10.170;2024-01-11T03:10:51;21.08;;;8.50;;
50605;SDS011;36557;53.572;10.170;2024-01-11T03:13:17;21.10;;;8.48;;
50605;SDS011;36557;53.572;10.170;2024-01-11T03:15:43;23.42;;;9.65;;
50605;SDS011;36557;53.572;10.170;2024-01-11T03:18:09;19.95;;;8.10;;
50605;SDS011;36557;53.572;10.170;2024-01-11T03:20:35;21.60;;;10.25;;
50605;SDS011;36557;53.572;10.170;2024-01-11T03:23:01;21.02;;;8.30;;
50605;SDS011;36557;53.572;10.170;2024-01-11T03:25:29;22.52;;;8.85;;
50605;SDS011;36557;53.572;10.170;2024-01-11T03:27:55;27.67;;;10.00;;
50605;SDS011;36557;53.572;10.170;2024-01-11T03:30:21;24.70;;;9.27;;
50605;SDS011;36557;53.572;10.170;2024-01-11T03:32:47;24.88;;;10.48;;
50605;SDS011;36557;53.572;10.170;2024-01-11T03:35:13;25.65;;;8.55;;
50605;SDS011;36557;53.572;10.170;2024-01-11T03:37:39;23.40;;;8.32;;
50605;SDS011;36557;53.572;10.170;2024-01-11T03:40:05;24.38;;;9.95;;
50605;SDS011;36557;53.572;10.170;2024-01-11T03:42:32;23.35;;;10.75;;
50605;SDS011;36557;53.572;10.170;2024-01-11T03:44:58;27.60;;;9.88;;
50605;SDS011;36557;53.572;10.170;2024-01-11T03:47:24;22.42;;;8.75;;
50605;SDS011;36557;53.572;10.170;2024-01-11T03:49:50;20.40;;;8.50;;
50605;SDS011;36557;53.572;10.170;2024-01-11T03:52:16;22.80;;;9.52;;
50605;SDS011;36557;53.572;10.170;2024-01-11T03:54:42;17.85;;;7.78;;
50605;SDS011;36557;53.572;10.170;2024-01-11T03:57:08;21.65;;;10.32;;
50605;SDS011;36557;53.572;10.170;2024-01-11T03:59:34;21.65;;;8.25;;
50605;SDS011;36557;53.572;10.170;2024-01-11T04:02:00;24.02;;;8.77;;
50605;SDS011;36557;53.572;10.170;2024-01-11T04:04:26;20.55;;;7.60;;
50605;SDS011;36557;53.572;10.170;2024-01-11T04:06:52;20.15;;;8.77;;
50605;SDS011;36557;53.572;10.170;2024-01-11T04:09:18;22.65;;;10.45;;
50605;SDS011;36557;53.572;10.170;2024-01-11T04:11:45;21.45;;;8.80;;
50605;SDS011;36557;53.572;10.170;2024-01-11T04:14:11;23.75;;;10.43;;
50605;SDS011;36557;53.572;10.170;2024-01-11T04:16:43;21.95;;;9.15;;
50605;SDS011;36557;53.572;10.170;2024-01-11T04:19:10;23.40;;;10.40;;
50605;SDS011;36557;53.572;10.170;2024-01-11T04:21:36;23.17;;;10.57;;
50605;SDS011;36557;53.572;10.170;2024-01-11T04:24:04;21.70;;;8.98;;
50605;SDS011;36557;53.572;10.170;2024-01-11T05:00:38;25.63;;;8.70;;
50605;SDS011;36557;53.572;10.170;2024-01-11T05:03:04;23.67;;;9.35;;
50605;SDS011;36557;53.572;10.170;2024-01-11T05:05:30;24.73;;;9.63;;
50605;SDS011;36557;53.572;10.170;2024-01-11T05:07:56;24.65;;;10.45;;
50605;SDS011;36557;53.572;10.170;2024-01-11T05:10:23;24.65;;;9.82;;
50605;SDS011;36557;53.572;10.170;2024-01-11T05:12:49;23.75;;;9.82;;
50605;SDS011;36557;53.572;10.170;2024-01-11T05:15:15;29.67;;;11.65;;
50605;SDS011;36557;53.572;10.170;2024-01-11T05:17:41;30.50;;;10.82;;
50605;SDS011;36557;53.572;10.170;2024-01-11T05:20:08;17.55;;;8.05;;
50605;SDS011;36557;53.572;10.170;2024-01-11T05:22:35;21.63;;;8.70;;
50605;SDS011;36557;53.572;10.170;2024-01-11T05:25:01;25.88;;;11.10;;
50605;SDS011;36557;53.572;10.170;2024-01-11T05:27:27;23.48;;;10.38;;
50605;SDS011;36557;53.572;10.170;2024-01-11T05:29:54;21.95;;;8.95;;
50605;SDS011;36557;53.572;10.170;2024-01-11T05:32:20;23.52;;;8.82;;
50605;SDS011;36557;53.572;10.170;2024-01-11T05:34:46;19.98;;;8.38;;
50605;SDS011;36557;53.572;10.170;2024-01-11T05:37:12;25.27;;;10.10;;
50605;SDS011;36557;53.572;10.170;2024-01-11T05:39:38;21.33;;;8.43;;
50605;SDS011;36557;53.572;10.170;2024-01-11T05:42:04;23.20;;;8.55;;
50605;SDS011;36557;53.572;10.170;2024-01-11T05:44:31;21.83;;;9.30;;
50605;SDS011;36557;53.572;10.170;2024-01-11T05:46:57;21.17;;;8.75;;
50605;SDS011;36557;53.572;10.170;2024-01-11T05:49:23;22.08;;;8.18;;
50605;SDS011;36557;53.572;10.170;2024-01-11T05:51:49;24.40;;;9.50;;
50605;SDS011;36557;53.572;10.170;2024-01-11T05:54:15;21.20;;;7.32;;
50605;SDS011;36557;53.572;10.170;2024-01-11T05:56:41;21.20;;;8.98;;
50605;SDS011;36557;53.572;10.170;2024-01-11T05:59:07;20.20;;;7.47;;
50605;SDS011;36557;53.572;10.170;2024-01-11T06:06:25;20.77;;;8.50;;
50605;SDS011;36557;53.572;10.170;2024-01-11T06:08:51;28.02;;;11.73;;
50605;SDS011;36557;53.572;10.170;2024-01-11T06:11:17;29.38;;;12.05;;
50605;SDS011;36557;53.572;10.170;2024-01-11T06:13:43;26.92;;;11.15;;
50605;SDS011;36557;53.572;10.170;2024-01-11T06:16:10;29.33;;;12.40;;
50605;SDS011;36557;53.572;10.170;2024-01-11T06:18:36;30.33;;;12.73;;
50605;SDS011;36557;53.572;10.170;2024-01-11T06:21:02;26.17;;;9.80;;
50605;SDS011;36557;53.572;10.170;2024-01-11T06:23:28;23.73;;;9.00;;
50605;SDS011;36557;53.572;10.170;2024-01-11T06:25:54;23.58;;;9.70;;
50605;SDS011;36557;53.572;10.170;2024-01-11T06:28:20;29.08;;;11.38;;
50605;SDS011;36557;53.572;10.170;2024-01-11T06:30:46;23.88;;;10.13;;
50605;SDS011;36557;53.572;10.170;2024-01-11T07:58:22;17.30;;;5.07;;
50605;SDS011;36557;53.572;10.170;2024-01-11T08:00:48;15.50;;;5.57;;
50605;SDS011;36557;53.572;10.170;2024-01-11T08:03:14;14.55;;;5.03;;
50605;SDS011;36557;53.572;10.170;2024-01-11T08:05:41;12.52;;;4.80;;
50605;SDS011;36557;53.572;10.170;2024-01-11T08:08:08;16.75;;;4.93;;
50605;SDS011;36557;53.572;10.170;2024-01-11T08:10:34;15.77;;;5.50;;
50605;SDS011;36557;53.572;10.170;2024-01-11T08:13:00;12.27;;;5.80;;
50605;SDS011;36557;53.572;10.170;2024-01-11T08:15:26;15.48;;;5.93;;
50605;SDS011;36557;53.572;10.170;2024-01-11T08:17:52;15.82;;;5.97;;
50605;SDS011;36557;53.572;10.170;2024-01-11T08:20:18;15.18;;;5.50;;
50605;SDS011;36557;53.572;10.170;2024-01-11T08:22:44;15.35;;;4.80;;
50605;SDS011;36557;53.572;10.170;2024-01-11T08:25:12;22.33;;;6.97;;
50605;SDS011;36557;53.572;10.170;2024-01-11T08:27:38;10.43;;;4.30;;
50605;SDS011;36557;53.572;10.170;2024-01-11T08:30:04;13.52;;;4.55;;
50605;SDS011;36557;53.572;10.170;2024-01-11T08:32:31;12.43;;;4.68;;
50605;SDS011;36557;53.572;10.170;2024-01-11T08:35:02;15.35;;;5.85;;
50605;SDS011;36557;53.572;10.170;2024-01-11T08:37:29;21.02;;;5.50;;
50605;SDS011;36557;53.572;10.170;2024-01-11T08:39:55;11.27;;;4.45;;
50605;SDS011;36557;53.572;10.170;2024-01-11T08:42:21;14.73;;;4.35;;
50605;SDS011;36557;53.572;10.170;2024-01-11T08:44:47;11.77;;;4.60;;
50605;SDS011;36557;53.572;10.170;2024-01-11T08:47:13;17.90;;;5.38;;
50605;SDS011;36557;53.572;10.170;2024-01-11T08:49:40;14.45;;;4.85;;
50605;SDS011;36557;53.572;10.170;2024-01-11T08:52:07;13.07;;;4.57;;
50605;SDS011;36557;53.572;10.170;2024-01-11T08:54:33;14.18;;;5.00;;
50605;SDS011;36557;53.572;10.170;2024-01-11T08:56:59;13.75;;;4.93;;
50605;SDS011;36557;53.572;10.170;2024-01-11T08:59:25;13.15;;;4.20;;
50605;SDS011;36557;53.572;10.170;2024-01-11T09:01:52;11.65;;;4.03;;
50605;SDS011;36557;53.572;10.170;2024-01-11T09:04:18;14.48;;;6.53;;
50605;SDS011;36557;53.572;10.170;2024-01-11T09:06:44;12.10;;;3.42;;
50605;SDS011;36557;53.572;10.170;2024-01-11T09:09:10;13.38;;;3.97;;
50605;SDS011;36557;53.572;10.170;2024-01-11T09:11:38;11.32;;;4.03;;
50605;SDS011;36557;53.572;10.170;2024-01-11T09:14:06;9.15;;;3.72;;
50605;SDS011;36557;53.572;10.170;2024-01-11T09:16:32;13.68;;;5.75;;
50605;SDS011;36557;53.572;10.170;2024-01-11T09:18:58;15.13;;;5.68;;
50605;SDS011;36557;53.572;10.170;2024-01-11T09:21:25;14.18;;;5.78;;
50605;SDS011;36557;53.572;10.170;2024-01-11T09:23:51;10.75;;;4.00;;
50605;SDS011;36557;53.572;10.170;2024-01-11T09:26:17;14.02;;;4.75;;
50605;SDS011;36557;53.572;10.170;2024-01-11T09:28:44;16.70;;;5.55;;
50605;SDS011;36557;53.572;10.170;2024-01-11T09:31:11;13.07;;;4.68;;
50605;SDS011;36557;53.572;10.170;2024-01-11T09:33:37;11.50;;;3.95;;
50605;SDS011;36557;53.572;10.170;2024-01-11T09:36:03;11.82;;;3.65;;
50605;SDS011;36557;53.572;10.170;2024-01-11T09:38:29;14.93;;;4.50;;
50605;SDS011;36557;53.572;10.170;2024-01-11T09:41:14;24.05;;;9.40;;
50605;SDS011;36557;53.572;10.170;2024-01-11T09:43:43;23.42;;;9.60;;
50605;SDS011;36557;53.572;10.170;2024-01-11T09:46:09;32.40;;;9.55;;
50605;SDS011;36557;53.572;10.170;2024-01-11T09:48:38;40.08;;;14.10;;
50605;SDS011;36557;53.572;10.170;2024-01-11T09:51:06;76.22;;;28.92;;
50605;SDS011;36557;53.572;10.170;2024-01-11T09:53:34;36.33;;;13.77;;
50605;SDS011;36557;53.572;10.170;2024-01-11T09:56:01;34.53;;;13.38;;
50605;SDS011;36557;53.572;10.170;2024-01-11T09:58:29;37.10;;;14.35;;
50605;SDS011;36557;53.572;10.170;2024-01-11T10:00:55;19.75;;;6.97;;
50605;SDS011;36557;53.572;10.170;2024-01-11T10:03:24;17.13;;;5.85;;
50605;SDS011;36557;53.572;10.170;2024-01-11T10:05:57;18.83;;;5.68;;
50605;SDS011;36557;53.572;10.170;2024-01-11T10:08:23;19.05;;;6.60;;
50605;SDS011;36557;53.572;10.170;2024-01-11T10:10:50;14.32;;;4.70;;
50605;SDS011;36557;53.572;10.170;2024-01-11T10:13:16;14.45;;;4.38;;
50605;SDS011;36557;53.572;10.170;2024-01-11T10:15:42;14.57;;;5.10;;
50605;SDS011;36557;53.572;10.170;2024-01-11T10:18:08;19.33;;;6.05;;
50605;SDS011;36557;53.572;10.170;2024-01-11T10:20:35;18.30;;;4.95;;
50605;SDS011;36557;53.572;10.170;2024-01-11T10:23:02;15.43;;;5.22;;
50605;SDS011;36557;53.572;10.170;2024-01-11T10:25:28;15.00;;;5.18;;
50605;SDS011;36557;53.572;10.170;2024-01-11T10:27:54;16.08;;;5.18;;
50605;SDS011;36557;53.572;10.170;2024-01-11T10:30:20;14.88;;;4.78;;
50605;SDS011;36557;53.572;10.170;2024-01-11T10:32:48;13.90;;;5.78;;
50605;SDS011;36557;53.572;10.170;2024-01-11T10:35:15;16.90;;;5.30;;
50605;SDS011;36557;53.572;10.170;2024-01-11T10:37:43;13.40;;;5.90;;
50605;SDS011;36557;53.572;10.170;2024-01-11T10:40:10;17.00;;;6.28;;
50605;SDS011;36557;53.572;10.170;2024-01-11T10:42:41;15.60;;;5.05;;
50605;SDS011;36557;53.572;10.170;2024-01-11T10:45:18;12.30;;;4.88;;
50605;SDS011;36557;53.572;10.170;2024-01-11T10:50:13;15.20;;;4.25;;
50605;SDS011;36557;53.572;10.170;2024-01-11T10:52:42;19.10;;;5.88;;
50605;SDS011;36557;53.572;10.170;2024-01-11T10:55:09;12.63;;;4.50;;
50605;SDS011;36557;53.572;10.170;2024-01-11T10:57:35;10.38;;;3.97;;
50605;SDS011;36557;53.572;10.170;2024-01-11T11:00:02;13.98;;;4.68;;
50605;SDS011;36557;53.572;10.170;2024-01-11T11:02:29;12.88;;;4.13;;
50605;SDS011;36557;53.572;10.170;2024-01-11T11:04:55;11.00;;;5.18;;
50605;SDS011;36557;53.572;10.170;2024-01-11T11:07:21;15.55;;;4.20;;
50605;SDS011;36557;53.572;10.170;2024-01-11T11:09:49;13.15;;;4.55;;
50605;SDS011;36557;53.572;10.170;2024-01-11T11:12:15;10.63;;;4.10;;
50605;SDS011;36557;53.572;10.170;2024-01-11T11:14:42;16.75;;;4.55;;
50605;SDS011;36557;53.572;10.170;2024-01-11T11:17:09;10.57;;;4.13;;
50605;SDS011;36557;53.572;10.170;2024-01-11T11:19:35;14.35;;;3.90;;
50605;SDS011;36557;53.572;10.170;2024-01-11T11:22:03;9.77;;;4.15;;
50605;SDS011;36557;53.572;10.170;2024-01-11T11:24:30;14.60;;;5.25;;
50605;SDS011;36557;53.572;10.170;2024-01-11T11:26:56;13.10;;;5.00;;
50605;SDS011;36557;53.572;10.170;2024-01-11T11:29:24;12.90;;;5.63;;
50605;SDS011;36557;53.572;10.170;2024-01-11T11:31:50;12.30;;;5.53;;
50605;SDS011;36557;53.572;10.170;2024-01-11T11:34:39;18.50;;;4.32;;
50605;SDS011;36557;53.572;10.170;2024-01-11T11:37:04;12.15;;;4.72;;
50605;SDS011;36557;53.572;10.170;2024-01-11T11:39:31;12.85;;;4.43;;
50605;SDS011;36557;53.572;10.170;2024-01-11T11:41:58;12.32;;;4.68;;
50605;SDS011;36557;53.572;10.170;2024-01-11T11:44:26;11.82;;;5.32;;
50605;SDS011;36557;53.572;10.170;2024-01-11T11:46:52;11.82;;;4.70;;
50605;SDS011;36557;53.572;10.170;2024-01-11T11:49:18;10.50;;;5.10;;
50605;SDS011;36557;53.572;10.170;2024-01-11T11:51:44;14.15;;;5.07;;
50605;SDS011;36557;53.572;10.170;2024-01-11T11:54:10;15.23;;;4.57;;
50605;SDS011;36557;53.572;10.170;2024-01-11T11:56:39;12.13;;;5.15;;
50605;SDS011;36557;53.572;10.170;2024-01-11T11:59:06;18.90;;;5.03;;
50605;SDS011;36557;53.572;10.170;2024-01-11T12:01:32;20.70;;;7.50;;
50605;SDS011;36557;53.572;10.170;2024-01-11T12:03:59;15.70;;;6.50;;
50605;SDS011;36557;53.572;10.170;2024-01-11T12:06:27;13.30;;;5.18;;
50605;SDS011;36557;53.572;10.170;2024-01-11T12:08:54;11.68;;;4.75;;
50605;SDS011;36557;53.572;10.170;2024-01-11T12:11:21;17.63;;;5.80;;
50605;SDS011;36557;53.572;10.170;2024-01-11T12:13:48;18.80;;;6.47;;
50605;SDS011;36557;53.572;10.170;2024-01-11T12:16:14;11.95;;;4.63;;
50605;SDS011;36557;53.572;10.170;2024-01-11T12:18:40;15.63;;;5.50;;
50605;SDS011;36557;53.572;10.170;2024-01-11T12:21:07;12.82;;;4.50;;
50605;SDS011;36557;53.572;10.170;2024-01-11T12:23:34;16.25;;;5.80;;
50605;SDS011;36557;53.572;10.170;2024-01-11T12:26:03;15.35;;;5.18;;
50605;SDS011;36557;53.572;10.170;2024-01-11T12:28:32;13.30;;;5.18;;
50605;SDS011;36557;53.572;10.170;2024-01-11T12:30:59;12.82;;;5.30;;
50605;SDS011;36557;53.572;10.170;2024-01-11T12:33:26;15.27;;;5.97;;
50605;SDS011;36557;53.572;10.170;2024-01-11T12:35:52;14.52;;;5.53;;
50605;SDS011;36557;53.572;10.170;2024-01-11T12:38:18;16.42;;;5.95;;
50605;SDS011;36557;53.572;10.170;2024-01-11T12:40:45;15.20;;;5.20;;
50605;SDS011;36557;53.572;10.170;2024-01-11T12:43:11;19.45;;;5.80;;
50605;SDS011;36557;53.572;10.170;2024-01-11T12:45:38;18.38;;;6.25;;
50605;SDS011;36557;53.572;10.170;2024-01-11T12:48:07;18.27;;;5.93;;
50605;SDS011;36557;53.572;10.170;2024-01-11T12:50:34;17.55;;;5.28;;
50605;SDS011;36557;53.572;10.170;2024-01-11T12:55:28;12.10;;;4.95;;
50605;SDS011;36557;53.572;10.170;2024-01-11T12:58:07;14.48;;;5.32;;
50605;SDS011;36557;53.572;10.170;2024-01-11T13:00:36;13.55;;;5.97;;
50605;SDS011;36557;53.572;10.170;2024-01-11T13:03:06;18.77;;;5.68;;
50605;SDS011;36557;53.572;10.170;2024-01-11T13:05:32;14.23;;;5.35;;
50605;SDS011;36557;53.572;10.170;2024-01-11T13:08:09;13.95;;;5.75;;
50605;SDS011;36557;53.572;10.170;2024-01-11T13:10:35;13.88;;;5.47;;
50605;SDS011;36557;53.572;10.170;2024-01-11T13:13:02;14.10;;;5.25;;
50605;SDS011;36557;53.572;10.170;2024-01-11T13:15:29;18.17;;;6.78;;
50605;SDS011;36557;53.572;10.170;2024-01-11T13:17:56;15.50;;;5.22;;
50605;SDS011;36557;53.572;10.170;2024-01-11T13:20:22;16.10;;;6.40;;
50605;SDS011;36557;53.572;10.170;2024-01-11T13:22:56;18.55;;;5.47;;
50605;SDS011;36557;53.572;10.170;2024-01-11T13:25:34;17.00;;;6.50;;
50605;SDS011;36557;53.572;10.170;2024-01-11T13:28:01;14.65;;;5.90;;
50605;SDS011;36557;53.572;10.170;2024-01-11T13:30:27;19.77;;;6.15;;
50605;SDS011;36557;53.572;10.170;2024-01-11T13:32:53;21.08;;;5.63;;
50605;SDS011;36557;53.572;10.170;2024-01-11T13:35:19;17.02;;;6.35;;
50605;SDS011;36557;53.572;10.170;2024-01-11T13:37:45;18.00;;;5.45;;
50605;SDS011;36557;53.572;10.170;2024-01-11T13:40:11;14.75;;;5.93;;
50605;SDS011;36557;53.572;10.170;2024-01-11T13:42:39;18.35;;;6.53;;
50605;SDS011;36557;53.572;10.170;2024-01-11T13:45:05;17.92;;;7.05;;
50605;SDS011;36557;53.572;10.170;2024-01-11T13:47:34;15.48;;;6.30;;
50605;SDS011;36557;53.572;10.170;2024-01-11T13:50:00;21.85;;;6.75;;
50605;SDS011;36557;53.572;10.170;2024-01-11T13:52:26;18.98;;;6.05;;
50605;SDS011;36557;53.572;10.170;2024-01-11T13:54:52;16.65;;;6.25;;
50605;SDS011;36557;53.572;10.170;2024-01-11T13:57:18;15.65;;;5.97;;
50605;SDS011;36557;53.572;10.170;2024-01-11T13:59:44;15.82;;;6.18;;
50605;SDS011;36557;53.572;10.170;2024-01-11T14:02:10;15.90;;;5.35;;
50605;SDS011;36557;53.572;10.170;2024-01-11T14:04:37;16.63;;;6.05;;
50605;SDS011;36557;53.572;10.170;2024-01-11T14:07:04;19.88;;;6.45;;
50605;SDS011;36557;53.572;10.170;2024-01-11T14:09:30;16.23;;;5.32;;
50605;SDS011;36557;53.572;10.170;2024-01-11T14:11:56;17.60;;;5.15;;
50605;SDS011;36557;53.572;10.170;2024-01-11T14:14:22;15.30;;;5.97;;
50605;SDS011;36557;53.572;10.170;2024-01-11T14:16:48;15.68;;;6.45;;
50605;SDS011;36557;53.572;10.170;2024-01-11T14:19:14;16.17;;;5.80;;
50605;SDS011;36557;53.572;10.170;2024-01-11T14:21:40;22.13;;;7.22;;
50605;SDS011;36557;53.572;10.170;2024-01-11T14:24:06;15.93;;;5.78;;
50605;SDS011;36557;53.572;10.170;2024-01-11T14:26:32;23.52;;;6.60;;
50605;SDS011;36557;53.572;10.170;2024-01-11T14:28:58;14.15;;;5.72;;
50605;SDS011;36557;53.572;10.170;2024-01-11T14:31:26;14.48;;;5.60;;
50605;SDS011;36557;53.572;10.170;2024-01-11T14:33:52;19.30;;;6.75;;
50605;SDS011;36557;53.572;10.170;2024-01-11T14:36:18;16.33;;;6.10;;
50605;SDS011;36557;53.572;10.170;2024-01-11T14:38:44;16.15;;;6.93;;
50605;SDS011;36557;53.572;10.170;2024-01-11T14:41:10;17.95;;;6.97;;
50605;SDS011;36557;53.572;10.170;2024-01-11T14:43:36;18.90;;;6.65;;
50605;SDS011;36557;53.572;10.170;2024-01-11T14:46:02;17.25;;;6.75;;
50605;SDS011;36557;53.572;10.170;2024-01-11T14:48:28;17.02;;;6.00;;
50605;SDS011;36557;53.572;10.170;2024-01-11T14:50:56;15.57;;;5.60;;
50605;SDS011;36557;53.572;10.170;2024-01-11T14:53:22;17.02;;;6.13;;
50605;SDS011;36557;53.572;10.170;2024-01-11T14:55:48;15.45;;;5.43;;
50605;SDS011;36557;53.572;10.170;2024-01-11T14:58:14;17.13;;;7.13;;
50605;SDS011;36557;53.572;10.170;2024-01-11T15:00:41;19.63;;;7.20;;
50605;SDS011;36557;53.572;10.170;2024-01-11T15:03:08;16.45;;;5.68;;
50605;SDS011;36557;53.572;10.170;2024-01-11T15:05:34;16.83;;;5.70;;
50605;SDS011;36557;53.572;10.170;2024-01-11T15:08:01;15.80;;;5.28;;
50605;SDS011;36557;53.572;10.170;2024-01-11T15:10:27;17.58;;;5.60;;
50605;SDS011;36557;53.572;10.170;2024-01-11T15:12:53;19.98;;;6.32;;
50605;SDS011;36557;53.572;10.170;2024-01-11T15:15:19;16.20;;;5.72;;
50605;SDS011;36557;53.572;10.170;2024-01-11T15:17:45;12.50;;;5.60;;
50605;SDS011;36557;53.572;10.170;2024-01-11T15:20:12;17.27;;;5.25;;
50605;SDS011;36557;53.572;10.170;2024-01-11T15:22:38;14.40;;;5.18;;
50605;SDS011;36557;53.572;10.170;2024-01-11T15:25:04;15.20;;;5.75;;
50605;SDS011;36557;53.572;10.170;2024-01-11T15:27:31;15.52;;;5.32;;
50605;SDS011;36557;53.572;10.170;2024-01-11T15:29:57;10.45;;;3.88;;
50605;SDS011;36557;53.572;10.170;2024-01-11T15:32:23;9.00;;;3.38;;
50605;SDS011;36557;53.572;10.170;2024-01-11T15:34:50;15.05;;;3.95;;
50605;SDS011;36557;53.572;10.170;2024-01-11T15:37:17;13.73;;;3.72;;
50605;SDS011;36557;53.572;10.170;2024-01-11T15:39:44;7.47;;;2.92;;
50605;SDS011;36557;53.572;10.170;2024-01-11T15:42:11;8.35;;;3.05;;
50605;SDS011;36557;53.572;10.170;2024-01-11T15:44:37;8.38;;;2.47;;
50605;SDS011;36557;53.572;10.170;2024-01-11T15:47:04;7.65;;;2.80;;
50605;SDS011;36557;53.572;10.170;2024-01-11T15:49:30;6.95;;;3.30;;
50605;SDS011;36557;53.572;10.170;2024-01-11T15:51:56;9.63;;;2.75;;
50605;SDS011;36557;53.572;10.170;2024-01-11T15:54:22;10.48;;;3.15;;
50605;SDS011;36557;53.572;10.170;2024-01-11T15:56:48;6.82;;;2.92;;
50605;SDS011;36557;53.572;10.170;2024-01-11T15:59:15;7.78;;;3.50;;
50605;SDS011;36557;53.572;10.170;2024-01-11T16:01:41;5.63;;;3.05;;
50605;SDS011;36557;53.572;10.170;2024-01-11T16:04:07;5.55;;;2.55;;
50605;SDS011;36557;53.572;10.170;2024-01-11T16:06:33;10.18;;;2.67;;
50605;SDS011;36557;53.572;10.170;2024-01-11T16:08:59;7.57;;;2.63;;
50605;SDS011;36557;53.572;10.170;2024-01-11T16:11:25;6.40;;;2.67;;
50605;SDS011;36557;53.572;10.170;2024-01-11T16:13:51;13.07;;;3.95;;
50605;SDS011;36557;53.572;10.170;2024-01-11T16:16:18;12.50;;;3.13;;
50605;SDS011;36557;53.572;10.170;2024-01-11T16:18:44;10.45;;;3.40;;
50605;SDS011;36557;53.572;10.170;2024-01-11T16:21:10;8.73;;;3.08;;
50605;SDS011;36557;53.572;10.170;2024-01-11T16:23:36;5.97;;;3.03;;
50605;SDS011;36557;53.572;10.170;2024-01-11T16:26:05;12.00;;;3.55;;
50605;SDS011;36557;53.572;10.170;2024-01-11T16:28:32;7.40;;;2.95;;
50605;SDS011;36557;53.572;10.170;2024-01-11T16:30:59;7.82;;;3.25;;